Terminal Aerodrome Forecast
Issued by NWS Charleston, WV

Home | Current Version | Previous Version | Text Only | Print | Product List | Glossary On
Versions: 1 2 3 4 5 6 7 8 9 10 11 12 13 14 15 16 17 18 19 20 21 22 23 24
000
FTUS41 KRLX 111100
TAFCRW
TAF
KCRW 111136Z 1112/1212 00000KT 1SM BR VV001
     FM111230 00000KT 4SM BR SCT003
     FM111300 00000KT P6SM FEW050
     FM120600 00000KT 5SM BR FEW250
     FM120900 00000KT 2SM BR FEW001=

USA.gov is the U.S. government's official web portal to all federal, state and local government web resources and services.